Richard Lloyd Jones Jr Airport
KRVS : rendu visible

Aérodrome :











RETROUVEZ-NOUS SUR...

 
LOGIN :

S'inscrire | Disclaimer

   EN    FR    IT 

 









Légende :    VFR   VFR Marginal   IFR   IFR Intensif   IFR Très Intensif
Visi : 
Plafond : 
>= 8 km
>= 3000ft
5 à 8 km
1000 à 3000 ft
1500m à 5 km
500 à 1000 ft
800 à 1500m
200 à 500 ft
< 800m
< 200 ft
Symboles :   Orages  Brouillard  Fortes neiges  Fortes précipitations  Vent > 20 kt






- Altitude de l'aérodrome : 638 ft


KRVS - Richard Lloyd Jones Jr

DERNIER METAR :
  • 181653Z 35012G26KT 10SM CLR 06/M04 A3040 RMK AO2 PK WND 01026/1650 SLP300 T00611039

METARs EXPIRÉS :
  • 181553Z 33009G20KT 300V010 10SM CLR 06/M01 A3035 RMK AO2 SLP284 T00611011
  • 181453Z 32010G19KT 290V360 10SM CLR 07/01 A3030 RMK AO2 SLP266 T00670011 53059
  • 181438Z VRB06KT 10SM SCT023 06/01 A3028 RMK AO2 T00610011

TAF KRVS
Valide du 18 à 18h jusqu'au 19 à 18h UTC


181729Z 1818/1918 35012G26KT P6SM SKC
FM182100 36011KT P6SM SKC
FM190000 36003KT P6SM SCT250



MET'MAP, la Météo Aéronautique d'un coup d'oeil ! - Copyright ORBIFLY Décembre 2007 - Disclaimer

ORBIFLY MET'MAP TEAM :

Programmation & Développement : Alexandra Zaïnal
Sur une idée originale de : Baudouin d'Aumeries
Assistance à la programmation : Marc-Olivier Méhu
Soutien technique & logistique : Manuel Goepfert

Contact : metmap@orbifly.com




SOURCES & CREDITS :

   NOAA       Earth
Advisory